Time;durP1;ratioP1;P1;durP2;ratioP2;P2;SDS_P1;SDS_P2;PMS_P1;PMS_P2;Temp;Humidity;BMP_temperature;BMP_pressure;BME280_temperature;BME280_humidity;BME280_pressure;Samples;Min_cycle;Max_cycle;Signal;HPM_P1;HPM_P2
2023/05/23 00:03:09;;;;;;;;;;;;;;;;;;;;;
2023/05/23 00:06:25;;;;;;;;;10.50;10.50;;;;;17.70;66.97;100527.06;146615;627;47035;-65
2023/05/23 00:09:37;;;;;;;;;9.00;8.00;;;;;18.04;66.03;100584.53;146618;669;45020;-65
2023/05/23 00:12:38;;;;;;;;;10.00;9.00;;;;;18.33;66.06;100643.72;146616;691;46016;-64
2023/05/23 00:15:47;;;;;;;;;15.00;10.00;;;;;18.27;65.86;100634.84;146621;566;46020;-64
2023/05/23 00:18:41;;;;;;;;;9.00;7.00;;;;;18.28;66.93;100640.13;146613;615;46012;-64
2023/05/23 00:21:52;;;;;;;;;8.33;8.33;;;;;18.27;66.26;100640.97;146623;570;46010;-64
2023/05/23 00:24:47;;;;;;;;;11.25;9.75;;;;;18.28;66.90;100640.13;146619;675;46023;-65
2023/05/23 00:28:05;;;;;;;;;9.33;7.00;;;;;18.29;65.99;100647.16;146622;700;46014;-65
2023/05/23 00:31:21;;;;;;;;;10.25;10.00;;;;;18.29;66.12;100649.78;146619;601;47013;-65
2023/05/23 00:34:26;;;;;;;;;8.67;8.00;;;;;18.30;66.84;100656.78;146617;563;46020;-65
2023/05/23 00:37:19;;;;;;;;;8.33;6.00;;;;;18.24;66.82;100659.28;146618;697;46016;-65
2023/05/23 00:40:17;;;;;;;;;10.67;8.67;;;;;18.27;66.24;100650.59;146625;570;47012;-65
2023/05/23 00:43:28;;;;;;;;;;;;;;;;;;;;;
2023/05/23 00:46:20;;;;;;;;;9.25;9.25;;;;;18.28;69.05;100639.22;146619;680;46018;-65
2023/05/23 00:49:14;;;;;;;;;11.50;9.75;;;;;18.26;67.57;100635.72;146624;644;46010;-66
2023/05/23 00:52:10;;;;;;;;;9.00;9.00;;;;;18.25;67.98;100637.44;146615;578;46016;-66
2023/05/23 00:55:23;;;;;;;;;10.50;10.25;;;;;18.23;67.14;100631.28;146623;569;46013;-66
2023/05/23 00:58:37;;;;;;;;;10.50;8.25;;;;;18.21;67.82;100635.62;146614;565;46025;-64
2023/05/23 01:01:28;;;;;;;;;;;;;;;;;;;;;
2023/05/23 01:04:33;;;;;;;;;10.00;8.50;;;;;18.19;68.17;100645.19;146620;637;46012;-65
2023/05/23 01:07:48;;;;;;;;;9.75;8.50;;;;;18.16;67.40;100632.91;146622;564;46011;-64
2023/05/23 01:10:52;;;;;;;;;10.50;9.25;;;;;18.23;68.01;100647.03;146617;633;46016;-63
2023/05/23 01:14:11;;;;;;;;;10.25;8.75;;;;;18.22;68.25;100640.00;146623;609;46020;-65
2023/05/23 01:17:17;;;;;;;;;10.75;9.25;;;;;18.20;68.20;100639.09;146703;574;46014;-64
2023/05/23 01:20:18;;;;;;;;;9.67;8.33;;;;;18.24;67.60;100640.91;146621;627;46012;-65
2023/05/23 01:23:56;;;;;;;;;9.50;8.50;;;;;18.26;67.16;100641.84;146620;589;46021;-66
2023/05/23 01:27:45;;;;;;;;;11.50;10.00;;;;;16.94;67.39;100420.72;146609;565;46016;-65
2023/05/23 01:30:48;;;;;;;;;9.50;9.00;;;;;18.13;67.30;100647.69;146610;595;46021;-65
2023/05/23 01:33:49;;;;;;;;;8.50;7.25;;;;;18.11;67.61;100638.94;146610;664;46016;-64
2023/05/23 01:37:02;;;;;;;;;8.50;7.75;;;;;16.38;67.08;100345.34;146617;657;47014;-64
2023/05/23 01:39:58;;;;;;;;;10.75;10.00;;;;;18.13;67.90;100642.44;146613;590;46012;-64
2023/05/23 01:43:01;;;;;;;;;11.00;9.00;;;;;18.15;67.75;100648.62;146612;563;46010;-63
2023/05/23 01:46:48;;;;;;;;;;;;;;;;;;;;;
2023/05/23 01:49:55;;;;;;;;;11.25;9.50;;;;;18.16;67.81;100648.66;146616;622;46010;-64
2023/05/23 01:53:14;;;;;;;;;;;;;;;;;;;;;
2023/05/23 01:56:17;;;;;;;;;11.50;10.00;;;;;18.18;68.42;100638.19;146618;580;46010;-64
2023/05/23 01:59:38;;;;;;;;;8.50;8.00;;;;;18.12;68.26;100645.94;146605;576;46012;-64
2023/05/23 02:02:42;;;;;;;;;8.25;8.00;;;;;18.09;68.83;100648.50;146615;574;46021;-64
2023/05/23 02:05:46;;;;;;;;;8.75;8.75;;;;;18.05;68.60;100649.31;146612;570;46012;-64
2023/05/23 02:08:42;;;;;;;;;8.75;7.00;;;;;18.03;69.12;100646.63;146616;638;46010;-64
2023/05/23 02:11:38;;;;;;;;;7.75;7.75;;;;;17.99;68.71;100645.69;146610;595;46016;-66
2023/05/23 02:14:36;;;;;;;;;9.75;7.75;;;;;17.97;69.02;100646.50;146619;618;46020;-64
2023/05/23 02:17:29;;;;;;;;;9.00;9.00;;;;;17.92;69.12;100643.81;146613;613;46025;-64
2023/05/23 02:20:39;;;;;;;;;13.00;8.75;;;;;16.56;70.60;100433.84;146617;578;47010;-64
2023/05/23 02:23:32;;;;;;;;;;;;;;;;;;;;;
2023/05/23 02:26:53;;;;;;;;;10.25;9.50;;;;;16.09;71.02;100421.44;146610;644;46016;-64
2023/05/23 02:30:18;;;;;;;;;8.25;8.00;;;;;17.51;71.30;100649.06;146617;564;46020;-67
2023/05/23 02:33:18;;;;;;;;;10.00;10.00;;;;;17.54;71.48;100649.12;146609;583;47012;-66
2023/05/23 02:36:24;;;;;;;;;12.50;11.00;;;;;17.56;71.81;100657.00;146609;593;46020;-67
2023/05/23 02:39:16;;;;;;;;;11.75;11.00;;;;;17.51;72.73;100650.78;146702;578;46013;-64
2023/05/23 02:42:12;;;;;;;;;10.25;9.00;;;;;17.48;73.20;100650.72;146619;714;46012;-64
2023/05/23 02:45:10;;;;;;;;;11.50;10.00;;;;;17.49;72.59;100648.13;146623;571;46020;-65
2023/05/23 02:48:06;;;;;;;;;10.50;9.75;;;;;17.55;72.55;100650.00;146616;704;46014;-64
2023/05/23 02:51:14;;;;;;;;;9.25;8.75;;;;;17.64;71.76;100654.56;146623;630;46020;-65
2023/05/23 02:54:16;;;;;;;;;12.25;8.25;;;;;17.71;72.26;100657.34;146618;565;46017;-64
2023/05/23 02:57:17;;;;;;;;;9.75;9.25;;;;;17.75;72.54;100650.41;146623;616;47010;-64
2023/05/23 03:00:21;;;;;;;;;10.50;7.50;;;;;17.74;74.30;100653.87;146620;590;46015;-64
2023/05/23 03:03:20;;;;;;;;;9.33;7.67;;;;;17.75;75.56;100645.16;146624;631;46020;-64
2023/05/23 03:06:15;;;;;;;;;12.25;10.75;;;;;17.76;74.67;100645.22;146619;588;46016;-64
2023/05/23 03:09:18;;;;;;;;;12.75;10.25;;;;;17.82;74.11;100640.94;146618;642;46021;-64
2023/05/23 03:12:16;;;;;;;;;12.25;11.25;;;;;17.86;73.87;100648.94;146615;653;46016;-64
2023/05/23 03:15:20;;;;;;;;;10.25;10.00;;;;;17.91;73.53;100649.00;146617;666;46015;-65
2023/05/23 03:18:35;;;;;;;;;12.25;10.00;;;;;17.93;73.24;100650.81;146616;610;46016;-65
2023/05/23 03:21:43;;;;;;;;;14.50;11.00;;;;;17.94;72.56;100652.59;146618;662;46020;-65
2023/05/23 03:24:38;;;;;;;;;11.25;10.00;;;;;17.97;72.83;100667.50;146615;588;46016;-65
2023/05/23 03:27:45;;;;;;;;;10.50;9.00;;;;;17.98;72.66;100656.19;146620;709;46010;-64
2023/05/23 03:30:50;;;;;;;;;11.00;8.25;;;;;17.97;73.63;100651.75;146619;569;46013;-64
2023/05/23 03:33:46;;;;;;;;;16.50;15.00;;;;;18.01;72.96;100658.88;146621;590;46010;-64
2023/05/23 03:36:48;;;;;;;;;8.75;7.75;;;;;18.00;73.21;100654.44;146613;652;46016;-65
2023/05/23 03:39:47;;;;;;;;;14.00;11.75;;;;;18.01;73.05;100664.09;146622;569;46021;-65
2023/05/23 03:42:45;;;;;;;;;10.25;10.25;;;;;18.04;72.65;100673.75;146617;624;46014;-64
2023/05/23 03:45:39;;;;;;;;;12.00;10.00;;;;;18.03;73.49;100666.75;146616;595;46021;-64
2023/05/23 03:48:42;;;;;;;;;12.00;10.25;;;;;18.01;73.22;100669.34;146615;565;47012;-66
2023/05/23 03:51:40;;;;;;;;;15.00;12.50;;;;;18.03;72.78;100674.63;146621;695;46020;-65
2023/05/23 03:54:42;;;;;;;;;11.75;11.75;;;;;18.00;73.61;100675.44;146617;584;46012;-66
2023/05/23 03:57:45;;;;;;;;;11.25;11.25;;;;;17.97;74.35;100681.53;146620;622;46031;-65
2023/05/23 04:00:49;;;;;;;;;12.75;9.75;;;;;17.94;73.33;100680.56;146613;695;46034;-65
2023/05/23 04:03:46;;;;;;;;;10.50;9.75;;;;;17.94;73.78;100673.59;146620;682;46020;-65
2023/05/23 04:06:51;;;;;;;;;8.25;8.25;;;;;17.98;74.40;100670.16;146619;579;46017;-66
2023/05/23 04:09:58;;;;;;;;;15.00;12.00;;;;;18.03;74.16;100678.13;146621;641;46010;-66
2023/05/23 04:13:17;;;;;;;;;12.00;10.25;;;;;16.77;73.92;100467.50;146614;569;46016;-66
2023/05/23 04:16:20;;;;;;;;;12.75;11.50;;;;;17.98;73.96;100692.91;146620;643;46014;-67
2023/05/23 04:19:18;;;;;;;;;11.50;10.50;;;;;17.93;73.64;100691.91;146615;571;46016;-65
2023/05/23 04:22:22;;;;;;;;;12.00;10.25;;;;;17.94;73.55;100698.91;146617;564;46021;-65
2023/05/23 04:25:26;;;;;;;;;13.75;10.00;;;;;17.98;74.13;100696.41;146614;569;46016;-66
2023/05/23 04:28:42;;;;;;;;;11.75;11.50;;;;;16.55;72.94;100445.19;146618;572;46029;-65
2023/05/23 04:31:54;;;;;;;;;13.50;12.50;;;;;18.08;73.90;100704.47;146612;602;46016;-66
2023/05/23 04:34:39;;;;;;;;;12.75;12.75;;;;;18.11;77.37;100709.78;146702;564;46013;-65
2023/05/23 04:37:32;;;;;;;;;13.25;12.00;;;;;18.19;75.21;100708.16;146613;664;46942;-65
2023/05/23 04:40:32;;;;;;;;;12.75;12.25;;;;;18.23;74.75;100705.66;146614;626;46020;-66
2023/05/23 04:43:51;;;;;;;;;;;;;;;;;;;;;
2023/05/23 04:47:01;;;;;;;;;11.00;9.00;;;;;18.30;74.24;100708.41;146622;570;46020;-65
2023/05/23 04:49:59;;;;;;;;;7.50;7.00;;;;;18.38;73.00;100707.69;146620;578;46013;-68
2023/05/23 04:53:00;;;;;;;;;10.00;10.00;;;;;18.52;72.76;100707.06;146620;602;46010;-64
2023/05/23 04:56:13;;;;;;;;;9.25;8.00;;;;;18.69;71.69;100697.75;146611;625;46012;-65
2023/05/23 04:59:21;;;;;;;;;10.33;6.33;;;;;18.95;70.42;100698.25;146625;578;46010;-66
2023/05/23 05:02:18;;;;;;;;;9.00;7.75;;;;;19.10;70.22;100711.63;146619;577;46913;-65
2023/05/23 05:05:23;;;;;;;;;6.33;6.33;;;;;19.10;70.08;100709.00;146620;607;47020;-64
2023/05/23 05:08:49;;;;;;;;;;;;;;;;;;;;;
2023/05/23 05:12:03;;;;;;;;;7.67;7.00;;;;;18.98;69.13;100671.13;146620;581;46021;-64
2023/05/23 05:15:13;;;;;;;;;5.00;4.00;;;;;19.25;68.82;100692.59;146621;573;47012;-63
2023/05/23 05:18:10;;;;;;;;;8.00;7.33;;;;;19.32;68.27;100698.84;146623;659;46010;-66
2023/05/23 05:21:28;;;;;;;;;9.25;8.50;;;;;19.32;68.87;100693.56;146617;625;46016;-64
2023/05/23 05:24:39;;;;;;;;;7.75;6.50;;;;;19.31;67.43;100676.88;146622;569;47010;-63
2023/05/23 05:27:42;;;;;;;;;9.00;8.00;;;;;19.50;67.81;100698.19;146619;586;46012;-66
2023/05/23 05:30:52;;;;;;;;;7.67;7.67;;;;;19.56;68.16;100696.56;146623;564;46010;-64
2023/05/23 05:34:12;;;;;;;;;8.00;6.75;;;;;18.19;67.71;100451.00;146617;697;47014;-64
2023/05/23 05:37:05;;;;;;;;;7.33;7.33;;;;;19.68;68.09;100700.25;146622;590;46010;-64
2023/05/23 05:40:32;;;;;;;;;8.67;8.00;;;;;19.70;67.96;100698.53;146619;695;46016;-64
2023/05/23 05:43:39;;;;;;;;;8.00;8.00;;;;;19.72;68.79;100702.03;146622;606;46014;-65
2023/05/23 05:46:51;;;;;;;;;10.00;7.50;;;;;19.75;67.81;100707.34;146617;673;46912;-64
2023/05/23 05:50:02;;;;;;;;;7.00;7.00;;;;;19.84;69.02;100711.00;146625;674;46010;-64
2023/05/23 05:52:48;;;;;;;;;32.75;30.25;;;;;19.96;68.83;100710.25;146704;570;45023;-66
2023/05/23 05:55:43;;;;;;;;;13.00;11.25;;;;;20.18;69.16;100714.03;146611;630;46016;-65
2023/05/23 05:59:04;;;;;;;;;8.33;8.33;;;;;20.57;67.25;100709.25;146617;577;47020;-65
2023/05/23 06:02:01;;;;;;;;;11.00;9.33;;;;;20.88;64.22;100707.78;146621;608;46012;-65
2023/05/23 06:05:12;;;;;;;;;;;;;;;;;;;;;
2023/05/23 06:08:21;;;;;;;;;7.67;6.67;;;;;20.96;63.59;100704.31;146617;588;46922;-65
2023/05/23 06:11:26;;;;;;;;;8.33;7.67;;;;;21.05;63.84;100703.53;146620;563;46020;-65
2023/05/23 06:14:32;;;;;;;;;;;;;;;;;;;;;
2023/05/23 06:17:50;;;;;;;;;7.00;5.00;;;;;21.13;63.36;100704.47;146623;618;46020;-65
2023/05/23 06:20:50;;;;;;;;;8.33;7.00;;;;;21.19;63.70;100709.81;146618;590;46017;-65
2023/05/23 06:23:40;;;;;;;;;7.00;6.00;;;;;21.33;62.70;100706.38;146703;563;46022;-65
2023/05/23 06:26:40;;;;;;;;;7.00;7.00;;;;;21.51;62.08;100709.16;146614;659;47017;-66
2023/05/23 06:29:44;;;;;;;;;7.33;5.67;;;;;21.63;61.69;100711.87;146623;571;46020;-65
2023/05/23 06:32:49;;;;;;;;;7.00;6.00;;;;;21.62;62.15;100701.31;146621;576;46012;-66
2023/05/23 06:35:57;;;;;;;;;6.75;6.75;;;;;21.66;61.88;100698.72;146625;565;46029;-65
2023/05/23 06:38:57;;;;;;;;;6.33;6.00;;;;;21.73;62.03;100693.47;146612;652;47012;-65
2023/05/23 06:42:07;;;;;;;;;9.50;7.50;;;;;21.88;61.47;100688.25;146623;642;46010;-66
2023/05/23 06:45:05;;;;;;;;;7.00;6.00;;;;;22.01;60.02;100692.72;146616;648;46016;-66
2023/05/23 06:48:18;;;;;;;;;6.00;6.00;;;;;21.85;60.42;100657.44;146623;579;46021;-66
2023/05/23 06:51:18;;;;;;;;;5.00;5.00;;;;;22.00;60.30;100679.53;146617;566;46012;-64
2023/05/23 06:54:28;;;;;;;;;8.00;6.00;;;;;21.97;59.91;100675.09;146624;577;46021;-64
2023/05/23 06:57:10;;;;;;;;;7.33;7.00;;;;;21.87;58.98;100678.59;146701;572;46022;-65
2023/05/23 07:00:07;;;;;;;;;7.33;6.33;;;;;21.90;60.82;100678.59;146614;571;46031;-65
2023/05/23 07:03:02;;;;;;;;;7.33;5.00;;;;;22.10;60.93;100671.63;146622;575;47020;-66
2023/05/23 07:05:58;;;;;;;;;7.33;6.33;;;;;22.32;58.88;100669.94;146618;599;47012;-65
2023/05/23 07:08:56;;;;;;;;;8.00;7.00;;;;;22.48;57.83;100662.06;146624;582;46014;-66
2023/05/23 07:11:59;;;;;;;;;8.00;6.00;;;;;22.58;58.59;100645.31;146619;572;46016;-66
2023/05/23 07:14:56;;;;;;;;;7.00;6.00;;;;;22.83;58.42;100670.91;146622;586;46010;-66
2023/05/23 07:18:27;;;;;;;;;7.33;5.00;;;;;21.72;55.92;100467.41;146619;581;46016;-66
2023/05/23 07:21:38;;;;;;;;;5.00;5.00;;;;;22.73;58.15;100665.59;146624;598;46021;-66
2023/05/23 07:24:35;;;;;;;;;7.67;6.00;;;;;22.66;56.91;100666.50;146614;576;46012;-66
2023/05/23 07:27:29;;;;;;;;;6.00;6.00;;;;;22.60;56.73;100662.94;146622;566;46010;-66
2023/05/23 07:30:36;;;;;;;;;5.67;5.67;;;;;22.55;57.41;100666.47;146619;600;46012;-66
2023/05/23 07:33:39;;;;;;;;;6.50;6.00;;;;;22.57;57.71;100662.94;146622;625;46010;-66
2023/05/23 07:36:52;;;;;;;;;;;;;;;;;;;;;
2023/05/23 07:40:08;;;;;;;;;7.67;7.67;;;;;22.67;57.57;100668.25;146618;596;47010;-66
2023/05/23 07:43:12;;;;;;;;;6.33;5.67;;;;;22.76;57.99;100673.53;146619;610;46017;-66
2023/05/23 07:46:06;;;;;;;;;6.67;5.33;;;;;22.85;55.76;100673.53;146621;589;46010;-66
2023/05/23 07:49:04;;;;;;;;;7.67;7.00;;;;;22.80;54.54;100678.84;146617;587;46012;-65
2023/05/23 07:52:01;;;;;;;;;7.00;5.67;;;;;22.70;55.66;100668.25;146620;604;46021;-65
2023/05/23 07:55:02;;;;;;;;;6.67;5.00;;;;;22.61;56.51;100669.12;146615;643;47875;-65
2023/05/23 07:58:15;;;;;;;;;4.67;3.67;;;;;22.53;57.13;100669.12;146621;591;47014;-67
2023/05/23 08:01:24;;;;;;;;;8.67;8.33;;;;;21.10;58.44;100447.84;146616;581;47012;-66
2023/05/23 08:04:28;;;;;;;;;5.00;4.00;;;;;22.23;58.41;100685.78;146620;588;47011;-66
2023/05/23 08:07:40;;;;;;;;;8.00;5.00;;;;;22.00;58.19;100680.41;146614;635;46017;-66
2023/05/23 08:10:53;;;;;;;;;9.00;8.00;;;;;19.29;59.15;100291.31;146623;563;47014;-66
2023/05/23 08:14:02;;;;;;;;;9.00;7.00;;;;;21.31;59.79;100697.56;146618;579;46017;-65
2023/05/23 08:16:59;;;;;;;;;6.00;6.00;;;;;21.15;61.31;100699.22;146625;600;46010;-65
2023/05/23 08:20:09;;;;;;;;;8.67;7.67;;;;;21.01;61.38;100693.84;146614;635;47917;-65
2023/05/23 08:23:25;;;;;;;;;8.00;7.00;;;;;19.55;61.33;100463.34;146620;630;46020;-65
2023/05/23 08:26:17;;;;;;;;;6.00;6.00;;;;;20.83;61.23;100696.31;146616;594;47013;-65
2023/05/23 08:29:14;;;;;;;;;4.00;4.00;;;;;20.72;61.53;100694.47;146624;609;46010;-65
2023/05/23 08:32:19;;;;;;;;;9.00;6.67;;;;;20.65;61.12;100699.66;146616;616;46016;-65
2023/05/23 08:35:35;;;;;;;;;6.00;6.00;;;;;20.60;61.24;100702.25;146617;608;47010;-66
2023/05/23 08:38:42;;;;;;;;;6.00;6.00;;;;;19.35;62.75;100455.25;146622;571;46917;-65
2023/05/23 08:41:55;;;;;;;;;6.33;6.33;;;;;19.91;62.10;100463.75;146623;613;46010;-66
2023/05/23 08:44:59;;;;;;;;;7.33;7.33;;;;;21.76;60.28;100689.09;146621;598;46012;-68
2023/05/23 08:47:54;;;;;;;;;5.67;5.67;;;;;22.21;59.35;100690.19;146624;574;46010;-62
2023/05/23 08:51:24;;;;;;;;;7.00;7.00;;;;;22.45;55.41;100689.34;146620;563;46012;-67
2023/05/23 08:54:28;;;;;;;;;5.00;4.67;;;;;22.41;55.12;100686.72;146622;612;45581;-64
2023/05/23 08:57:36;;;;;;;;;;;;;;;;;;;;;
2023/05/23 09:00:43;;;;;;;;;5.33;5.00;;;;;22.16;56.03;100701.59;146618;579;46020;-64
2023/05/23 09:03:36;;;;;;;;;9.00;8.00;;;;;21.97;56.31;100700.63;146612;609;46016;-66
2023/05/23 09:06:49;;;;;;;;;6.33;5.33;;;;;21.72;57.07;100686.44;146618;596;46010;-65
2023/05/23 09:10:15;;;;;;;;;6.00;4.67;;;;;20.17;57.80;100469.22;146614;581;46012;-66
2023/05/23 09:13:30;;;;;;;;;6.67;5.67;;;;;21.30;58.79;100695.81;146620;649;46020;-66
2023/05/23 09:16:26;;;;;;;;;6.00;6.00;;;;;21.27;59.52;100695.78;146613;609;47012;-67
2023/05/23 09:19:20;;;;;;;;;6.33;6.00;;;;;21.30;59.13;100688.78;146619;591;46029;-66
2023/05/23 09:22:55;;;;;;;;;6.67;6.00;;;;;20.20;58.85;100496.44;146613;563;46919;-66
2023/05/23 09:26:00;;;;;;;;;6.67;6.00;;;;;21.31;58.33;100694.91;146620;588;46015;-65
2023/05/23 09:29:13;;;;;;;;;5.00;5.00;;;;;21.23;58.27;100697.53;146613;665;46012;-66
2023/05/23 09:32:44;;;;;;;;;;;;;;;;;;;;;
2023/05/23 09:35:54;;;;;;;;;8.67;7.00;;;;;21.20;58.60;100694.84;146614;564;46014;-66
2023/05/23 09:39:01;;;;;;;;;6.33;5.33;;;;;21.27;58.91;100677.31;146616;583;46020;-66
2023/05/23 09:42:14;;;;;;;;;6.67;5.00;;;;;21.41;58.70;100680.97;146609;580;46017;-65
2023/05/23 09:45:39;;;;;;;;;6.00;6.00;;;;;20.38;57.55;100465.88;146618;593;46020;-64
2023/05/23 09:48:59;;;;;;;;;6.00;6.00;;;;;21.62;57.69;100689.03;146615;612;46013;-66
2023/05/23 09:52:21;;;;;;;;;;;;;;;;;;;;;
2023/05/23 09:55:14;;;;;;;;;7.00;6.00;;;;;21.64;56.93;100695.16;146612;588;46015;-67
2023/05/23 09:58:38;;;;;;;;;5.00;5.00;;;;;21.65;56.34;100690.78;146623;641;47010;-66
2023/05/23 10:01:35;;;;;;;;;8.00;7.00;;;;;21.75;57.65;100689.09;146612;594;46016;-66
2023/05/23 10:05:09;;;;;;;;;7.00;5.67;;;;;20.87;58.02;100468.81;146620;632;46020;-65
2023/05/23 10:08:09;;;;;;;;;7.67;6.33;;;;;22.64;54.98;100694.66;146619;679;46012;-65
2023/05/23 10:12:11;;;;;;;;;6.33;5.67;;;;;21.76;55.70;100485.00;146618;617;47020;-65
2023/05/23 10:15:38;;;;;;;;;;;;;;;;;;;;;
2023/05/23 10:19:08;;;;;;;;;5.00;5.00;;;;;23.24;54.01;100685.00;146622;593;46021;-66
2023/05/23 10:22:16;;;;;;;;;6.00;5.00;;;;;23.40;50.97;100693.81;146614;615;46016;-65
2023/05/23 10:25:01;;;;;;;;;5.33;5.33;;;;;23.14;51.22;100696.47;146711;569;46022;-67
2023/05/23 10:28:01;;;;;;;;;9.67;9.00;;;;;22.81;51.83;100690.28;146628;602;46016;-66
2023/05/23 10:31:06;;;;;;;;;7.00;6.00;;;;;22.58;53.57;100685.84;146632;632;46010;-66
2023/05/23 10:34:26;;;;;;;;;5.67;5.67;;;;;22.45;54.96;100689.34;146626;613;46016;-66
2023/05/23 10:37:34;;;;;;;;;6.33;5.67;;;;;22.44;55.81;100687.59;146630;581;46020;-66
2023/05/23 10:41:11;;;;;;;;;6.33;6.00;;;;;22.47;54.94;100679.69;146629;590;46012;-66
2023/05/23 10:44:29;;;;;;;;;5.33;4.00;;;;;22.47;56.00;100682.31;146630;595;46031;-66
2023/05/23 10:47:44;;;;;;;;;5.50;5.50;;;;;22.24;56.26;100605.69;146625;564;46014;-67
2023/05/23 10:50:46;;;;;;;;;6.33;5.33;;;;;22.85;52.74;100680.59;146630;682;46010;-67
2023/05/23 10:53:54;;;;;;;;;7.67;5.67;;;;;23.02;52.66;100676.22;146625;601;46014;-68
2023/05/23 10:56:50;;;;;;;;;7.33;5.33;;;;;23.19;52.02;100673.56;146629;644;46020;-65
2023/05/23 10:59:50;;;;;;;;;7.00;6.67;;;;;23.37;51.12;100668.25;146625;581;47015;-65
2023/05/23 11:03:10;;;;;;;;;8.33;6.33;;;;;23.67;53.74;100659.31;146633;579;46010;-65
2023/05/23 11:06:45;;;;;;;;;6.67;5.33;;;;;23.80;52.21;100631.09;146618;569;47024;-66
2023/05/23 11:10:22;;;;;;;;;6.00;6.00;;;;;24.25;50.19;100655.56;146629;684;46021;-65
2023/05/23 11:13:30;;;;;;;;;7.00;6.33;;;;;24.26;48.10;100664.37;146628;604;46016;-65
2023/05/23 11:16:48;;;;;;;;;8.00;8.00;;;;;24.23;52.34;100670.56;146629;666;46021;-65
2023/05/23 11:20:27;;;;;;;;;;;;;;;;;;;;;
2023/05/23 11:23:22;;;;;;;;;5.00;4.00;;;;;24.50;49.09;100671.34;146629;576;46010;-65
2023/05/23 11:26:49;;;;;;;;;7.33;7.00;;;;;24.55;50.75;100670.44;146618;569;46915;-65
2023/05/23 11:29:42;;;;;;;;;7.00;6.00;;;;;24.60;48.36;100668.59;146623;622;46021;-66
2023/05/23 11:32:39;;;;;;;;;6.00;6.00;;;;;24.69;48.48;100665.00;146621;564;46014;-65
2023/05/23 11:35:47;;;;;;;;;6.67;6.00;;;;;24.71;47.29;100665.00;146623;581;47020;-65
2023/05/23 11:38:55;;;;;;;;;5.33;5.33;;;;;24.35;46.78;100606.91;146618;575;46012;-66
2023/05/23 11:42:04;;;;;;;;;7.33;7.00;;;;;24.62;48.34;100658.00;146623;583;46020;-66
2023/05/23 11:45:01;;;;;;;;;10.00;7.00;;;;;24.66;48.12;100651.78;146619;669;46016;-65
2023/05/23 11:48:10;;;;;;;;;8.00;5.00;;;;;24.81;50.41;100661.38;146627;666;46010;-67
2023/05/23 11:51:09;;;;;;;;;5.33;4.67;;;;;24.89;48.10;100657.78;146618;564;47013;-67
2023/05/23 11:54:09;;;;;;;;;6.33;5.33;;;;;24.92;48.15;100663.94;146624;578;46020;-67
2023/05/23 11:57:14;;;;;;;;;5.00;5.00;;;;;24.95;47.89;100662.12;146619;665;46016;-67
2023/05/23 12:00:31;;;;;;;;;6.00;4.33;;;;;25.02;47.71;100660.31;146623;564;46021;-67
2023/05/23 12:03:29;;;;;;;;;6.33;6.33;;;;;25.13;48.20;100653.16;146618;593;46016;-67
2023/05/23 12:06:48;;;;;;;;;;;;;;;;;;;;;
2023/05/23 12:10:11;;;;;;;;;7.00;5.67;;;;;25.30;49.97;100653.87;146619;644;46911;-66
2023/05/23 12:13:16;;;;;;;;;6.00;5.00;;;;;25.38;47.95;100650.25;146623;645;46020;-65
2023/05/23 12:16:05;;;;;;;;;7.00;5.67;;;;;25.40;44.83;100656.44;146702;572;46012;-66
2023/05/23 12:19:18;;;;;;;;;;;;;;;;;;;;;
2023/05/23 12:22:25;;;;;;;;;6.00;5.33;;;;;25.35;47.09;100644.09;146622;583;46020;-66
2023/05/23 12:25:43;;;;;;;;;9.00;6.00;;;;;25.33;47.31;100645.03;146619;574;46016;-67
2023/05/23 12:28:50;;;;;;;;;7.00;6.00;;;;;25.37;48.60;100659.12;146621;612;46021;-67
2023/05/23 12:32:08;;;;;;;;;5.00;5.00;;;;;25.42;47.75;100654.63;146621;578;46016;-68
2023/05/23 12:35:22;;;;;;;;;4.00;4.00;;;;;25.52;48.73;100678.44;146626;647;46012;-65
2023/05/23 12:38:22;;;;;;;;;5.67;5.00;;;;;25.64;47.71;100657.91;146621;589;46012;-66
2023/05/23 12:41:41;;;;;;;;;6.67;5.67;;;;;25.67;49.94;100656.12;146625;564;46021;-67
2023/05/23 12:44:44;;;;;;;;;7.67;7.67;;;;;25.68;45.70;100655.22;146621;593;46014;-66
2023/05/23 12:47:42;;;;;;;;;5.67;4.33;;;;;25.62;44.14;100649.12;146624;708;46013;-66
2023/05/23 12:50:47;;;;;;;;;5.67;5.00;;;;;25.48;47.45;100644.84;146619;601;46016;-65
2023/05/23 12:53:59;;;;;;;;;5.00;5.00;;;;;25.44;45.32;100658.16;146622;598;46020;-67
2023/05/23 12:57:00;;;;;;;;;4.33;4.33;;;;;25.28;46.76;100645.06;146620;677;46013;-66
2023/05/23 13:00:24;;;;;;;;;;;;;;;;;;;;;
2023/05/23 13:03:39;;;;;;;;;6.00;6.00;;;;;25.21;48.44;100653.97;146618;587;46919;-66
2023/05/23 13:06:42;;;;;;;;;7.00;7.00;;;;;25.20;49.45;100653.97;146625;583;46020;-66
2023/05/23 13:09:46;;;;;;;;;6.00;5.00;;;;;25.16;45.25;100661.09;146621;569;46014;-65
2023/05/23 13:12:55;;;;;;;;;5.67;5.33;;;;;25.06;46.33;100656.75;146623;631;46020;-66
2023/05/23 13:15:50;;;;;;;;;5.00;5.00;;;;;25.08;45.89;100654.97;146621;583;46016;-66
2023/05/23 13:18:55;;;;;;;;;6.67;5.67;;;;;25.10;45.58;100658.47;146623;705;46012;-66
2023/05/23 13:22:03;;;;;;;;;5.67;5.67;;;;;25.09;46.73;100656.72;146622;605;46012;-66
2023/05/23 13:25:17;;;;;;;;;6.67;6.33;;;;;25.07;48.76;100669.09;146624;596;46011;-66
2023/05/23 13:28:28;;;;;;;;;7.00;7.00;;;;;25.12;48.63;100667.31;146620;626;46012;-66
2023/05/23 13:31:33;;;;;;;;;6.67;6.00;;;;;24.56;49.80;100570.56;146625;663;46010;-66
2023/05/23 13:34:34;;;;;;;;;6.67;5.00;;;;;25.07;48.08;100671.75;146622;628;46012;-67
2023/05/23 13:37:34;;;;;;;;;5.67;5.67;;;;;24.98;48.66;100667.41;146624;636;46010;-67
2023/05/23 13:40:38;;;;;;;;;6.00;5.00;;;;;24.98;46.42;100663.87;146622;564;46013;-68
2023/05/23 13:43:48;;;;;;;;;7.00;6.00;;;;;24.94;48.39;100672.78;146623;624;46020;-66
2023/05/23 13:46:57;;;;;;;;;6.33;6.33;;;;;24.93;49.65;100671.03;146619;641;46016;-66
2023/05/23 13:49:58;;;;;;;;;4.33;2.00;;;;;24.89;48.08;100671.03;146623;597;46020;-66
2023/05/23 13:53:23;;;;;;;;;;;;;;;;;;;;;
2023/05/23 13:56:23;;;;;;;;;7.67;6.67;;;;;24.72;48.75;100670.28;146620;615;46021;-65
2023/05/23 13:59:50;;;;;;;;;6.67;5.00;;;;;24.72;49.36;100678.25;146617;617;47012;-66
2023/05/23 14:02:43;;;;;;;;;7.33;6.67;;;;;24.74;48.57;100670.28;146621;664;46020;-67
2023/05/23 14:06:03;;;;;;;;;8.00;6.33;;;;;24.62;51.00;100660.66;146621;708;46916;-67
2023/05/23 14:09:08;;;;;;;;;8.00;6.00;;;;;24.61;49.12;100675.69;146624;577;46020;-68
2023/05/23 14:12:13;;;;;;;;;6.00;6.00;;;;;24.58;48.50;100665.09;146619;595;46016;-67
2023/05/23 14:15:12;;;;;;;;;5.00;5.00;;;;;24.54;47.94;100665.13;146624;572;46020;-66
2023/05/23 14:18:22;;;;;;;;;5.00;5.00;;;;;24.47;47.36;100660.75;146618;636;46014;-66
2023/05/23 14:21:24;;;;;;;;;7.00;5.67;;;;;24.44;48.58;100661.66;146621;586;47010;-66
2023/05/23 14:24:21;;;;;;;;;6.00;5.00;;;;;24.45;48.49;100662.53;146617;583;46017;-66
2023/05/23 14:27:39;;;;;;;;;6.67;5.00;;;;;24.45;48.12;100651.94;146623;629;46010;-67
2023/05/23 14:30:41;;;;;;;;;5.00;5.00;;;;;24.42;48.54;100659.03;146619;600;46012;-67
2023/05/23 14:33:39;;;;;;;;;7.00;5.33;;;;;24.43;48.68;100651.97;146620;606;46021;-66
2023/05/23 14:36:56;;;;;;;;;9.00;7.00;;;;;24.43;47.59;100652.84;146616;579;46016;-66
2023/05/23 14:40:06;;;;;;;;;7.33;7.00;;;;;24.43;49.53;100649.31;146621;660;46010;-66
2023/05/23 14:43:04;;;;;;;;;7.00;5.33;;;;;24.40;47.22;100634.25;146618;615;46012;-67
2023/05/23 14:46:01;;;;;;;;;6.00;6.00;;;;;24.40;47.35;100636.91;146623;603;47010;-67
2023/05/23 14:49:05;;;;;;;;;8.00;7.33;;;;;24.40;47.76;100634.25;146617;571;48016;-67
2023/05/23 14:52:16;;;;;;;;;7.00;5.00;;;;;24.36;48.73;100635.19;146622;591;46029;-68
2023/05/23 14:55:16;;;;;;;;;7.00;7.00;;;;;24.36;47.24;100632.53;146618;564;46916;-68
2023/05/23 14:58:25;;;;;;;;;;;;;;;;;;;;;
2023/05/23 15:01:37;;;;;;;;;7.00;6.67;;;;;23.91;50.92;100570.13;146620;581;46031;-66
2023/05/23 15:04:39;;;;;;;;;;;;;;;;;;;;;